Palmhurst, Texas
Current Conditions -  °F | °C
As of 7:53 PM on Friday 24 Oct 2014 (Local Time) from KMFE Reporting Station
Clear Clear  
Wind Chill: 77°   Ceiling: Unl
Heat Index: 79°   Visibility: 10mi
Dew Point: 63°   Wind: 10mph
Humidity: 62%   Direction: 80°E
Pressure: 30.1"   Gusts: NA
Location:  26.2155°N, 98.325°W
Report Text: KMFE 250053Z AUTO 08009KT 10SM CLR 25/17 A3010 RMK AO2 SLP192 T02500172 TSNO
Loading
Personal Weather Stations






























Interactive Weather Map
Tropical Storm Tracking
New forecast layout! Learn more

10-Day Weather Forecast

Advertisements
Track Severe Weather on mobile